Time;durP1;ratioP1;P1;durP2;ratioP2;P2;SDS_P1;SDS_P2;PMS_P1;PMS_P2;Temp;Humidity;BMP_temperature;BMP_pressure;BME280_temperature;BME280_humidity;BME280_pressure;Samples;Min_cycle;Max_cycle;Signal;HPM_P1;HPM_P2
2021/12/31 00:01:25;;;;;;;1999.90;999.90;;;;;;;;;;5001686;28;20067;-87
2021/12/31 00:03:52;;;;;;;1999.90;999.90;;;;;;;;;;5017393;28;20029;-86
2021/12/31 00:06:17;;;;;;;1561.50;754.28;;;;;;;;;;5017873;28;20029;-86
2021/12/31 00:08:44;;;;;;;1999.90;999.90;;;;;;;;;;5017520;28;20025;-86
2021/12/31 00:11:12;;;;;;;1999.90;999.90;;;;;;;;;;4997723;28;20033;-86
2021/12/31 00:13:38;;;;;;;1999.90;999.90;;;;;;;;;;5013961;28;20021;-86
2021/12/31 00:16:03;;;;;;;1999.90;999.90;;;;;;;;;;4998240;28;20080;-85
2021/12/31 00:18:30;;;;;;;1999.90;999.90;;;;;;;;;;5017213;28;20403;-86
2021/12/31 00:20:56;;;;;;;1999.90;999.90;;;;;;;;;;5001013;28;20120;-86
2021/12/31 00:23:25;;;;;;;1999.90;999.90;;;;;;;;;;5017674;28;20112;-86
2021/12/31 00:25:50;;;;;;;1327.53;530.22;;;;;;;;;;5001211;28;20039;-85
2021/12/31 00:28:17;;;;;;;1999.90;999.90;;;;;;;;;;4999929;28;20025;-86
2021/12/31 00:30:43;;;;;;;1999.90;999.90;;;;;;;;;;5016575;28;20043;-86
2021/12/31 00:33:11;;;;;;;1999.90;999.90;;;;;;;;;;5000683;28;20025;-85
2021/12/31 00:35:37;;;;;;;1999.90;999.90;;;;;;;;;;4999601;28;20026;-86
2021/12/31 00:38:04;;;;;;;1999.90;999.90;;;;;;;;;;5000357;28;20025;-86
2021/12/31 00:40:30;;;;;;;1999.90;999.90;;;;;;;;;;5001621;28;20114;-86
2021/12/31 00:42:56;;;;;;;1999.90;999.90;;;;;;;;;;5016882;28;20021;-86
2021/12/31 00:45:24;;;;;;;1999.90;999.90;;;;;;;;;;4998401;28;20163;-86
2021/12/31 00:47:50;;;;;;;1999.90;999.90;;;;;;;;;;5001011;28;20037;-86
2021/12/31 00:50:17;;;;;;;1999.90;999.90;;;;;;;;;;5017198;28;20040;-84
2021/12/31 00:52:43;;;;;;;1999.90;999.90;;;;;;;;;;4998769;28;20026;-86
2021/12/31 00:55:10;;;;;;;1999.90;999.90;;;;;;;;;;5001173;28;20116;-85
2021/12/31 00:57:35;;;;;;;802.85;284.50;;;;;;;;;;5001002;28;20029;-85
2021/12/31 01:00:03;;;;;;;1999.90;999.90;;;;;;;;;;5017434;28;20052;-86
2021/12/31 01:02:29;;;;;;;1999.90;999.90;;;;;;;;;;5016565;28;20125;-85
2021/12/31 01:04:55;;;;;;;1999.90;999.90;;;;;;;;;;5017106;28;20131;-86
2021/12/31 01:07:20;;;;;;;1999.90;999.90;;;;;;;;;;4995983;28;20037;-85
2021/12/31 01:09:46;;;;;;;1999.90;999.90;;;;;;;;;;4998829;28;20029;-85
2021/12/31 01:12:14;;;;;;;1999.90;999.90;;;;;;;;;;5000888;28;20036;-85
2021/12/31 01:14:51;;;;;;;1999.90;999.90;;;;;;;;;;5001085;28;20040;-84
2021/12/31 01:17:26;;;;;;;1999.90;999.90;;;;;;;;;;5003300;28;20066;-85
2021/12/31 01:19:52;;;;;;;1999.90;999.90;;;;;;;;;;5015399;28;20037;-85
2021/12/31 01:22:31;;;;;;;1999.90;999.90;;;;;;;;;;5000398;28;20057;-85
2021/12/31 01:24:59;;;;;;;1262.22;532.13;;;;;;;;;;5003929;28;20055;-85
2021/12/31 01:27:26;;;;;;;1999.90;999.90;;;;;;;;;;4999938;28;20029;-85
2021/12/31 01:29:53;;;;;;;1293.95;523.90;;;;;;;;;;4999387;28;20041;-85
2021/12/31 01:32:19;;;;;;;1593.72;759.15;;;;;;;;;;5000112;28;20025;-85
2021/12/31 01:34:44;;;;;;;1999.90;999.90;;;;;;;;;;4997741;28;20041;-84
2021/12/31 01:37:11;;;;;;;1999.90;999.90;;;;;;;;;;4997691;28;20111;-85
2021/12/31 01:39:38;;;;;;;1999.90;999.90;;;;;;;;;;5030588;28;20099;-84
2021/12/31 01:42:07;;;;;;;1999.90;999.90;;;;;;;;;;5030625;28;20026;-84
2021/12/31 01:44:47;;;;;;;1999.90;999.90;;;;;;;;;;5017494;28;20029;-85
2021/12/31 01:47:15;;;;;;;1999.90;999.90;;;;;;;;;;5033568;28;20079;-84
2021/12/31 01:49:53;;;;;;;1065.40;504.95;;;;;;;;;;5050297;28;20080;-84
2021/12/31 01:52:20;;;;;;;1999.90;999.90;;;;;;;;;;5020881;28;20037;-85
2021/12/31 01:54:47;;;;;;;1999.90;999.90;;;;;;;;;;5034262;28;20041;-85
2021/12/31 01:57:13;;;;;;;1999.90;999.90;;;;;;;;;;5017327;28;20029;-84
2021/12/31 01:59:40;;;;;;;1999.90;999.90;;;;;;;;;;5016071;28;20033;-84
2021/12/31 02:02:07;;;;;;;1999.90;999.90;;;;;;;;;;5001952;28;20036;-85
2021/12/31 02:04:32;;;;;;;1999.90;999.90;;;;;;;;;;5017099;28;20040;-85
2021/12/31 02:06:59;;;;;;;1999.90;999.90;;;;;;;;;;5033414;28;20033;-85
2021/12/31 02:09:24;;;;;;;1637.15;772.22;;;;;;;;;;5016843;28;20037;-84
2021/12/31 02:11:53;;;;;;;1999.90;999.90;;;;;;;;;;5033316;28;20033;-84
2021/12/31 02:14:20;;;;;;;1999.90;999.90;;;;;;;;;;5016424;28;20026;-85
2021/12/31 02:16:47;;;;;;;1999.90;999.90;;;;;;;;;;5017002;28;20136;-84
2021/12/31 02:19:15;;;;;;;1999.90;999.90;;;;;;;;;;5036418;28;20025;-85
2021/12/31 02:21:44;;;;;;;1999.90;999.90;;;;;;;;;;5003798;28;20087;-84
2021/12/31 02:24:12;;;;;;;1999.90;999.90;;;;;;;;;;5004337;28;20036;-83
2021/12/31 02:26:37;;;;;;;1999.90;999.90;;;;;;;;;;5003961;28;20028;-85
2021/12/31 02:29:03;;;;;;;1999.90;999.90;;;;;;;;;;5019635;28;20037;-84
2021/12/31 02:31:28;;;;;;;1999.90;999.90;;;;;;;;;;5003524;28;20399;-84
2021/12/31 02:33:55;;;;;;;1999.90;999.90;;;;;;;;;;5000305;28;20030;-84
2021/12/31 02:36:21;;;;;;;1999.90;999.90;;;;;;;;;;5033033;28;20041;-85
2021/12/31 02:38:47;;;;;;;1999.90;999.90;;;;;;;;;;5049835;28;20033;-85
2021/12/31 02:41:13;;;;;;;1999.90;999.90;;;;;;;;;;5032769;28;20057;-85
2021/12/31 02:43:40;;;;;;;1999.90;999.90;;;;;;;;;;5032380;28;20081;-84
2021/12/31 02:46:05;;;;;;;1999.90;999.90;;;;;;;;;;5032596;28;20029;-84
2021/12/31 02:48:32;;;;;;;1999.90;999.90;;;;;;;;;;5032909;28;20030;-84
2021/12/31 02:50:59;;;;;;;1999.90;999.90;;;;;;;;;;4999803;28;20040;-85
2021/12/31 02:53:31;;;;;;;1999.90;999.90;;;;;;;;;;5032474;28;20062;-84
2021/12/31 02:56:16;;;;;;;1999.90;999.90;;;;;;;;;;5036088;28;20411;-84
2021/12/31 02:58:43;;;;;;;1999.90;999.90;;;;;;;;;;5003590;28;20037;-84
2021/12/31 03:01:08;;;;;;;1999.90;999.90;;;;;;;;;;5052300;28;20079;-85
2021/12/31 03:03:35;;;;;;;1999.90;999.90;;;;;;;;;;5032599;28;20041;-83
2021/12/31 03:06:01;;;;;;;1999.90;999.90;;;;;;;;;;5016075;28;20029;-84
2021/12/31 03:08:30;;;;;;;1999.90;999.90;;;;;;;;;;4999430;28;20037;-84
2021/12/31 03:10:56;;;;;;;1298.63;419.48;;;;;;;;;;4999335;28;20028;-84
2021/12/31 03:13:23;;;;;;;1999.90;999.90;;;;;;;;;;4999242;28;20108;-84
2021/12/31 03:15:52;;;;;;;1176.20;373.33;;;;;;;;;;5048648;28;20029;-84
2021/12/31 03:18:18;;;;;;;1999.90;999.90;;;;;;;;;;4999462;28;20431;-85
2021/12/31 03:20:57;;;;;;;1999.90;999.90;;;;;;;;;;4999789;28;20030;-84
2021/12/31 03:23:24;;;;;;;1999.90;999.90;;;;;;;;;;5002755;28;20551;-84
2021/12/31 03:25:51;;;;;;;1999.90;999.90;;;;;;;;;;5001295;28;20033;-84
2021/12/31 03:28:16;;;;;;;1999.90;999.90;;;;;;;;;;5035097;28;20025;-85
2021/12/31 03:30:43;;;;;;;1999.90;999.90;;;;;;;;;;5002418;28;20071;-85
2021/12/31 03:33:11;;;;;;;1999.90;999.90;;;;;;;;;;5002549;28;20028;-84
2021/12/31 03:35:37;;;;;;;1999.90;999.90;;;;;;;;;;5031802;28;20036;-84
2021/12/31 03:38:03;;;;;;;1999.90;999.90;;;;;;;;;;5032105;28;20021;-85
2021/12/31 03:40:29;;;;;;;1999.90;999.90;;;;;;;;;;5015141;28;20492;-84
2021/12/31 03:42:55;;;;;;;1999.90;999.90;;;;;;;;;;5015336;28;20029;-85
2021/12/31 03:45:22;;;;;;;1999.90;999.90;;;;;;;;;;5031777;28;20021;-85
2021/12/31 03:47:48;;;;;;;1999.90;999.90;;;;;;;;;;5017654;28;20029;-84
2021/12/31 03:50:14;;;;;;;1999.90;999.90;;;;;;;;;;5002276;28;20040;-85
2021/12/31 03:52:40;;;;;;;1999.90;999.90;;;;;;;;;;5018405;28;20044;-84
2021/12/31 03:55:06;;;;;;;1999.90;999.90;;;;;;;;;;5015952;28;20026;-84
2021/12/31 03:57:33;;;;;;;1999.90;999.90;;;;;;;;;;4982565;28;20037;-84
2021/12/31 04:00:01;;;;;;;1999.90;999.90;;;;;;;;;;5031403;28;20065;-84
2021/12/31 04:02:28;;;;;;;1999.90;999.90;;;;;;;;;;5018718;28;20025;-85
2021/12/31 04:04:54;;;;;;;1999.90;999.90;;;;;;;;;;5014171;28;20052;-84
2021/12/31 04:07:21;;;;;;;1999.90;999.90;;;;;;;;;;5015073;28;20041;-84
2021/12/31 04:09:48;;;;;;;1999.90;999.90;;;;;;;;;;5031337;28;20415;-84
2021/12/31 04:12:14;;;;;;;1999.90;999.90;;;;;;;;;;5015077;28;20025;-85
2021/12/31 04:14:41;;;;;;;1999.90;999.90;;;;;;;;;;5015134;28;20079;-85
2021/12/31 04:17:07;;;;;;;1999.90;999.90;;;;;;;;;;5014932;28;20037;-84
2021/12/31 04:19:33;;;;;;;1999.90;999.90;;;;;;;;;;5031163;28;20033;-84
2021/12/31 04:21:58;;;;;;;1999.90;999.90;;;;;;;;;;5014703;28;20037;-84
2021/12/31 04:26:53;;;;;;;1999.90;999.90;;;;;;;;;;5031822;28;20033;-84
2021/12/31 04:29:19;;;;;;;1999.90;999.90;;;;;;;;;;5014591;28;20040;-84
2021/12/31 04:31:44;;;;;;;1999.90;999.90;;;;;;;;;;5014126;28;20044;-84
2021/12/31 04:34:11;;;;;;;1999.90;999.90;;;;;;;;;;5035764;28;20036;-84
2021/12/31 04:36:36;;;;;;;1999.90;999.90;;;;;;;;;;4998363;28;20035;-84
2021/12/31 04:39:03;;;;;;;1999.90;999.90;;;;;;;;;;4998310;28;20025;-85
2021/12/31 04:41:30;;;;;;;1999.90;999.90;;;;;;;;;;4998289;28;20029;-84
2021/12/31 04:43:57;;;;;;;1999.90;999.90;;;;;;;;;;4998109;28;20033;-84
2021/12/31 04:46:23;;;;;;;1999.90;999.90;;;;;;;;;;5014110;28;20057;-84
2021/12/31 04:48:49;;;;;;;1999.90;999.90;;;;;;;;;;4997897;28;20025;-84
2021/12/31 04:51:16;;;;;;;1999.90;999.90;;;;;;;;;;4997953;28;20037;-84
2021/12/31 04:53:41;;;;;;;1999.90;999.90;;;;;;;;;;5047286;28;20061;-84
2021/12/31 04:56:07;;;;;;;1999.90;999.90;;;;;;;;;;5047327;28;20030;-84
2021/12/31 04:58:33;;;;;;;1999.90;999.90;;;;;;;;;;4998143;28;20093;-84
2021/12/31 05:00:59;;;;;;;1999.90;999.90;;;;;;;;;;4997274;28;20038;-84
2021/12/31 05:03:24;;;;;;;1999.90;999.90;;;;;;;;;;4998248;28;20052;-84
2021/12/31 05:05:50;;;;;;;1999.90;999.90;;;;;;;;;;4997775;28;20029;-84
2021/12/31 05:08:16;;;;;;;1999.90;999.90;;;;;;;;;;5014146;28;20026;-84
2021/12/31 05:10:44;;;;;;;1999.90;999.90;;;;;;;;;;4998194;28;20029;-84
2021/12/31 05:13:15;;;;;;;1999.90;999.90;;;;;;;;;;5030452;28;20049;-84
2021/12/31 05:15:46;;;;;;;1999.90;999.90;;;;;;;;;;4998422;28;20025;-85
2021/12/31 05:18:13;;;;;;;1999.90;999.90;;;;;;;;;;5002229;28;20483;-85
2021/12/31 05:20:39;;;;;;;1999.90;999.90;;;;;;;;;;5018042;28;20044;-85
2021/12/31 05:23:05;;;;;;;1999.90;999.90;;;;;;;;;;5017830;28;20037;-85
2021/12/31 05:25:32;;;;;;;1999.90;999.90;;;;;;;;;;5001767;28;20030;-85
2021/12/31 05:27:59;;;;;;;1999.90;999.90;;;;;;;;;;5017532;28;20040;-85
2021/12/31 05:30:25;;;;;;;1999.90;999.90;;;;;;;;;;5017758;28;20093;-85
2021/12/31 05:32:53;;;;;;;1999.90;999.90;;;;;;;;;;5034233;28;20025;-85
2021/12/31 05:35:19;;;;;;;1999.90;999.90;;;;;;;;;;5021078;28;20025;-85
2021/12/31 05:37:46;;;;;;;1999.90;999.90;;;;;;;;;;5004650;28;20031;-85
2021/12/31 05:40:12;;;;;;;1077.55;505.20;;;;;;;;;;5021158;28;20025;-84
2021/12/31 05:42:39;;;;;;;1087.43;508.40;;;;;;;;;;5020940;28;20039;-85
2021/12/31 05:45:05;;;;;;;1999.90;999.90;;;;;;;;;;5004505;28;20047;-85
2021/12/31 05:47:31;;;;;;;1999.90;999.90;;;;;;;;;;5004262;28;20382;-85
2021/12/31 05:49:57;;;;;;;1999.90;999.90;;;;;;;;;;5020175;28;20029;-85
2021/12/31 05:52:22;;;;;;;1999.90;999.90;;;;;;;;;;5004363;28;20047;-84
2021/12/31 05:54:49;;;;;;;1999.90;999.90;;;;;;;;;;5033865;28;20049;-85
2021/12/31 05:57:14;;;;;;;1999.90;999.90;;;;;;;;;;5046787;28;20069;-85
2021/12/31 05:59:40;;;;;;;1999.90;999.90;;;;;;;;;;5017121;28;20120;-85
2021/12/31 06:02:07;;;;;;;1999.90;999.90;;;;;;;;;;5003622;28;20020;-85
2021/12/31 06:04:32;;;;;;;1999.90;999.90;;;;;;;;;;5004164;28;20035;-85
2021/12/31 06:07:00;;;;;;;1999.90;999.90;;;;;;;;;;5019977;28;20040;-84
2021/12/31 06:09:26;;;;;;;1999.90;999.90;;;;;;;;;;5003985;28;20053;-85
2021/12/31 06:11:51;;;;;;;1999.90;999.90;;;;;;;;;;5003812;28;20039;-85
2021/12/31 06:14:18;;;;;;;1999.90;999.90;;;;;;;;;;5003897;28;20395;-85
2021/12/31 06:16:46;;;;;;;1142.55;513.10;;;;;;;;;;5004022;28;20040;-85
2021/12/31 06:19:13;;;;;;;1999.90;999.90;;;;;;;;;;5004029;28;20032;-84
2021/12/31 06:21:39;;;;;;;1999.90;999.90;;;;;;;;;;5003606;28;20033;-84
2021/12/31 06:24:05;;;;;;;1999.90;999.90;;;;;;;;;;5004106;28;20025;-84
2021/12/31 06:26:31;;;;;;;1999.90;999.90;;;;;;;;;;5000245;28;20025;-85
2021/12/31 06:28:56;;;;;;;1999.90;999.90;;;;;;;;;;5015669;28;20179;-83
2021/12/31 06:31:22;;;;;;;1999.90;999.90;;;;;;;;;;5032591;28;20036;-83
2021/12/31 06:33:48;;;;;;;1999.90;999.90;;;;;;;;;;5032589;28;20091;-82
2021/12/31 06:36:13;;;;;;;1999.90;999.90;;;;;;;;;;4999592;28;20037;-82
2021/12/31 06:38:39;;;;;;;1999.90;999.90;;;;;;;;;;5016528;28;20053;-82
2021/12/31 06:41:04;;;;;;;1999.90;999.90;;;;;;;;;;5015586;28;20506;-83
2021/12/31 06:43:30;;;;;;;1999.90;999.90;;;;;;;;;;5015800;28;20399;-82
2021/12/31 06:45:55;;;;;;;1999.90;999.90;;;;;;;;;;4999526;28;20096;-82
2021/12/31 06:48:20;;;;;;;1999.90;999.90;;;;;;;;;;4999774;28;20382;-83
2021/12/31 06:50:46;;;;;;;1999.90;999.90;;;;;;;;;;5018076;28;20044;-82
2021/12/31 06:53:11;;;;;;;1999.90;999.90;;;;;;;;;;5035540;28;20024;-84
2021/12/31 06:55:37;;;;;;;1999.90;999.90;;;;;;;;;;5002272;28;20095;-84
2021/12/31 06:58:03;;;;;;;1999.90;999.90;;;;;;;;;;5022842;28;20025;-84
2021/12/31 07:00:32;;;;;;;1999.90;999.90;;;;;;;;;;5022592;28;20040;-85
2021/12/31 07:03:05;;;;;;;1999.90;999.90;;;;;;;;;;5027557;28;20088;-84
2021/12/31 07:05:33;;;;;;;1999.90;999.90;;;;;;;;;;5003023;28;20044;-85
2021/12/31 07:07:58;;;;;;;1999.90;999.90;;;;;;;;;;5002402;28;20112;-82
2021/12/31 07:10:24;;;;;;;1999.90;999.90;;;;;;;;;;5002396;28;20106;-84
2021/12/31 07:12:49;;;;;;;1999.90;999.90;;;;;;;;;;5018876;28;20025;-85
2021/12/31 07:15:16;;;;;;;1999.90;999.90;;;;;;;;;;5024979;28;20099;-87
2021/12/31 07:17:41;;;;;;;1999.90;999.90;;;;;;;;;;5020425;28;20025;-84
2021/12/31 07:20:07;;;;;;;1999.90;999.90;;;;;;;;;;5038003;28;20055;-81
2021/12/31 07:22:33;;;;;;;1999.90;999.90;;;;;;;;;;5015279;28;20033;-85
2021/12/31 07:25:00;;;;;;;1999.90;999.90;;;;;;;;;;5027624;28;20118;-85
2021/12/31 07:27:28;;;;;;;1999.90;999.90;;;;;;;;;;4987196;28;20045;-84
2021/12/31 07:29:54;;;;;;;1999.90;999.90;;;;;;;;;;4983183;28;20502;-85
2021/12/31 07:32:20;;;;;;;1999.90;999.90;;;;;;;;;;4982186;28;20061;-84
2021/12/31 07:34:47;;;;;;;1999.90;999.90;;;;;;;;;;5027857;28;20048;-85
2021/12/31 07:37:12;;;;;;;1999.90;999.90;;;;;;;;;;5001869;28;20167;-82
2021/12/31 07:39:46;;;;;;;1999.90;999.90;;;;;;;;;;5034460;28;20037;-81
2021/12/31 07:42:11;;;;;;;1196.45;516.72;;;;;;;;;;5020325;28;20120;-82
2021/12/31 07:44:36;;;;;;;1999.90;999.90;;;;;;;;;;5017729;28;20040;-82
2021/12/31 07:47:02;;;;;;;1999.90;999.90;;;;;;;;;;4996625;28;20353;-83
2021/12/31 07:49:27;;;;;;;1999.90;999.90;;;;;;;;;;4997601;28;20033;-82
2021/12/31 07:51:54;;;;;;;1999.90;999.90;;;;;;;;;;5024352;28;20398;-83
2021/12/31 07:54:19;;;;;;;1999.90;999.90;;;;;;;;;;5017802;28;20048;-83
2021/12/31 07:56:45;;;;;;;1999.90;999.90;;;;;;;;;;5013508;28;20386;-83
2021/12/31 07:59:10;;;;;;;1999.90;999.90;;;;;;;;;;5021032;28;20034;-84
2021/12/31 08:01:36;;;;;;;1999.90;999.90;;;;;;;;;;5020593;28;20078;-84
2021/12/31 08:04:02;;;;;;;1999.90;999.90;;;;;;;;;;5001649;28;20036;-85
2021/12/31 08:06:28;;;;;;;1999.90;999.90;;;;;;;;;;5034337;28;20025;-85
2021/12/31 08:08:54;;;;;;;1999.90;999.90;;;;;;;;;;5001622;28;20108;-85
2021/12/31 08:11:34;;;;;;;1999.90;999.90;;;;;;;;;;5089309;27;20374;-84
2021/12/31 08:14:00;;;;;;;1580.45;757.47;;;;;;;;;;5054795;28;20035;-84
2021/12/31 08:16:26;;;;;;;1999.90;999.90;;;;;;;;;;5054351;28;20036;-84
2021/12/31 08:18:52;;;;;;;1999.90;999.90;;;;;;;;;;5054458;28;20040;-84
2021/12/31 08:21:18;;;;;;;1999.90;999.90;;;;;;;;;;5035542;28;20095;-83
2021/12/31 08:23:45;;;;;;;1999.90;999.90;;;;;;;;;;5047559;28;20036;-84
2021/12/31 08:26:10;;;;;;;1999.90;999.90;;;;;;;;;;5049630;28;20085;-84
2021/12/31 08:28:36;;;;;;;1999.90;999.90;;;;;;;;;;5018113;28;20049;-84
2021/12/31 08:31:01;;;;;;;1999.90;999.90;;;;;;;;;;5031797;28;20016;-84
2021/12/31 08:33:27;;;;;;;1999.90;999.90;;;;;;;;;;5019345;28;20029;-84
2021/12/31 08:35:52;;;;;;;1999.90;999.90;;;;;;;;;;5054174;28;20034;-84
2021/12/31 08:38:18;;;;;;;1999.90;999.90;;;;;;;;;;5037811;28;20389;-85
2021/12/31 08:40:45;;;;;;;1999.90;999.90;;;;;;;;;;5037178;28;20085;-85
2021/12/31 08:43:11;;;;;;;1999.90;999.90;;;;;;;;;;5037536;28;20058;-83
2021/12/31 08:45:37;;;;;;;1999.90;999.90;;;;;;;;;;5037173;28;20039;-84
2021/12/31 08:48:03;;;;;;;1999.90;999.90;;;;;;;;;;5036918;28;20024;-82
2021/12/31 08:50:29;;;;;;;1999.90;999.90;;;;;;;;;;5037118;28;20024;-83
2021/12/31 08:52:54;;;;;;;1999.90;999.90;;;;;;;;;;5037382;28;20070;-82
2021/12/31 08:55:20;;;;;;;1999.90;999.90;;;;;;;;;;5036276;28;20119;-82
2021/12/31 08:57:45;;;;;;;1999.90;999.90;;;;;;;;;;5015943;28;20425;-82
2021/12/31 09:00:11;;;;;;;1203.38;525.95;;;;;;;;;;5016982;28;20028;-83
2021/12/31 09:02:39;;;;;;;1999.90;999.90;;;;;;;;;;5025596;28;20024;-82
2021/12/31 09:05:06;;;;;;;1999.90;999.90;;;;;;;;;;5038048;28;20044;-83
2021/12/31 09:07:31;;;;;;;1591.97;759.03;;;;;;;;;;5037248;28;20028;-83
2021/12/31 09:09:57;;;;;;;1999.90;999.90;;;;;;;;;;5053309;28;20089;-83
2021/12/31 09:12:23;;;;;;;1999.90;999.90;;;;;;;;;;5036634;28;20119;-82
2021/12/31 09:14:49;;;;;;;1999.90;999.90;;;;;;;;;;5053193;28;20032;-83
2021/12/31 09:17:15;;;;;;;1999.90;999.90;;;;;;;;;;5053105;28;20043;-82
2021/12/31 09:19:42;;;;;;;1999.90;999.90;;;;;;;;;;5053289;28;20111;-83
2021/12/31 09:22:09;;;;;;;1670.18;766.25;;;;;;;;;;5028191;28;20021;-83
2021/12/31 09:24:35;;;;;;;1999.90;999.90;;;;;;;;;;5023678;28;20033;-83
2021/12/31 09:27:00;;;;;;;1999.90;999.90;;;;;;;;;;5023313;28;20036;-83
2021/12/31 09:29:26;;;;;;;1999.90;999.90;;;;;;;;;;5023283;28;20024;-83
2021/12/31 09:31:51;;;;;;;1999.90;999.90;;;;;;;;;;5023199;28;20062;-82
2021/12/31 09:34:17;;;;;;;1999.90;999.90;;;;;;;;;;5020132;28;20025;-82
2021/12/31 09:36:42;;;;;;;1999.90;999.90;;;;;;;;;;5020893;28;20379;-83
2021/12/31 09:39:08;;;;;;;1999.90;999.90;;;;;;;;;;5023337;28;20123;-82
2021/12/31 09:41:33;;;;;;;1999.90;999.90;;;;;;;;;;5023150;28;20099;-83
2021/12/31 09:44:00;;;;;;;1999.90;999.90;;;;;;;;;;5039528;28;20086;-82
2021/12/31 09:46:25;;;;;;;1999.90;999.90;;;;;;;;;;5022753;28;20078;-82
2021/12/31 09:48:51;;;;;;;1999.90;999.90;;;;;;;;;;5023041;28;20077;-82
2021/12/31 09:51:17;;;;;;;1999.90;999.90;;;;;;;;;;5039584;28;20097;-83
2021/12/31 09:53:43;;;;;;;1999.90;999.90;;;;;;;;;;5022947;28;20038;-82
2021/12/31 09:56:08;;;;;;;1999.90;999.90;;;;;;;;;;5019393;28;20025;-82
2021/12/31 09:58:35;;;;;;;1999.90;999.90;;;;;;;;;;5019579;28;20507;-82
2021/12/31 10:01:01;;;;;;;1999.90;999.90;;;;;;;;;;5003130;28;20029;-82
2021/12/31 10:03:31;;;;;;;1999.90;999.90;;;;;;;;;;5015231;28;20048;-83
2021/12/31 10:06:00;;;;;;;1999.90;999.90;;;;;;;;;;5020024;28;20036;-83
2021/12/31 10:08:27;;;;;;;1999.90;999.90;;;;;;;;;;5019636;28;20060;-82
2021/12/31 10:11:02;;;;;;;1999.90;999.90;;;;;;;;;;5018834;28;20033;-82
2021/12/31 10:13:28;;;;;;;1999.90;999.90;;;;;;;;;;5035668;28;20087;-82
2021/12/31 10:15:55;;;;;;;1999.90;999.90;;;;;;;;;;5002847;28;20104;-83
2021/12/31 10:18:27;;;;;;;1585.13;763.42;;;;;;;;;;5003199;28;20066;-82
2021/12/31 10:20:53;;;;;;;1999.90;999.90;;;;;;;;;;5003527;28;20025;-82
2021/12/31 10:23:21;;;;;;;1999.90;999.90;;;;;;;;;;5019068;28;20040;-83
2021/12/31 10:25:47;;;;;;;1999.90;999.90;;;;;;;;;;5010054;28;20557;-82
2021/12/31 10:28:15;;;;;;;1282.00;534.40;;;;;;;;;;5022198;28;20078;-84
2021/12/31 10:30:42;;;;;;;1999.90;999.90;;;;;;;;;;5038697;28;20063;-83
2021/12/31 10:33:08;;;;;;;1999.90;999.90;;;;;;;;;;5037897;28;20099;-83
2021/12/31 10:35:43;;;;;;;1999.90;999.90;;;;;;;;;;5018801;28;20455;-83
2021/12/31 10:38:11;;;;;;;1999.90;999.90;;;;;;;;;;5035648;28;20035;-84
2021/12/31 10:40:45;;;;;;;1999.90;999.90;;;;;;;;;;5002851;28;20087;-84
2021/12/31 10:43:16;;;;;;;1999.90;999.90;;;;;;;;;;5003280;28;20028;-85
2021/12/31 10:46:04;;;;;;;1999.90;999.90;;;;;;;;;;5018578;28;20483;-82
2021/12/31 10:48:39;;;;;;;1999.90;999.90;;;;;;;;;;5019338;28;20031;-82
2021/12/31 10:51:05;;;;;;;1999.90;999.90;;;;;;;;;;5018130;28;20033;-82
2021/12/31 10:53:34;;;;;;;1999.90;999.90;;;;;;;;;;5018705;28;20138;-82
2021/12/31 10:56:12;;;;;;;1999.90;999.90;;;;;;;;;;5022246;28;20107;-82
2021/12/31 10:58:39;;;;;;;1999.90;999.90;;;;;;;;;;5068255;28;20033;-82
2021/12/31 11:01:07;;;;;;;1999.90;999.90;;;;;;;;;;5051104;28;20108;-82
2021/12/31 11:03:33;;;;;;;1999.90;999.90;;;;;;;;;;5035399;28;20033;-82
2021/12/31 11:05:59;;;;;;;1999.90;999.90;;;;;;;;;;5001826;28;20486;-82
2021/12/31 11:08:24;;;;;;;1999.90;999.90;;;;;;;;;;5018296;28;20068;-82
2021/12/31 11:10:50;;;;;;;1999.90;999.90;;;;;;;;;;5001230;28;20106;-82
2021/12/31 11:13:20;;;;;;;1999.90;999.90;;;;;;;;;;5001947;28;20097;-82
2021/12/31 11:15:47;;;;;;;1999.90;999.90;;;;;;;;;;5002395;28;20943;-82
2021/12/31 11:18:13;;;;;;;1999.90;999.90;;;;;;;;;;5002082;28;20025;-82
2021/12/31 11:20:39;;;;;;;1999.90;999.90;;;;;;;;;;5001744;28;20033;-82
2021/12/31 11:23:05;;;;;;;1999.90;999.90;;;;;;;;;;5001856;28;20048;-82
2021/12/31 11:25:31;;;;;;;1999.90;999.90;;;;;;;;;;5017564;28;20037;-81
2021/12/31 11:27:57;;;;;;;1999.90;999.90;;;;;;;;;;5017396;28;20068;-82
2021/12/31 11:30:40;;;;;;;1999.90;999.90;;;;;;;;;;5034049;28;20025;-81
2021/12/31 11:33:08;;;;;;;1999.90;999.90;;;;;;;;;;5018277;28;20025;-81
2021/12/31 11:35:34;;;;;;;1999.90;999.90;;;;;;;;;;5050066;28;20064;-82
2021/12/31 11:38:05;;;;;;;1999.90;999.90;;;;;;;;;;5050743;28;20025;-82
2021/12/31 11:40:35;;;;;;;1999.90;999.90;;;;;;;;;;5017948;28;20528;-81
2021/12/31 11:43:13;;;;;;;1999.90;999.90;;;;;;;;;;5017579;28;20028;-81
2021/12/31 11:45:38;;;;;;;1999.90;999.90;;;;;;;;;;5033475;28;20033;-81
2021/12/31 11:48:42;;;;;;;1999.90;999.90;;;;;;;;;;5018055;28;20547;-82
2021/12/31 11:51:07;;;;;;;1999.90;999.90;;;;;;;;;;5050436;28;20067;-82
2021/12/31 11:53:33;;;;;;;1999.90;999.90;;;;;;;;;;5001126;28;20029;-81
2021/12/31 11:55:58;;;;;;;1999.90;999.90;;;;;;;;;;5001184;28;20394;-82
2021/12/31 11:58:41;;;;;;;1999.90;999.90;;;;;;;;;;5001257;28;20412;-81
2021/12/31 12:01:37;;;;;;;1999.90;999.90;;;;;;;;;;5001953;28;20100;-81
2021/12/31 12:04:28;;;;;;;1999.90;999.90;;;;;;;;;;5033963;28;20033;-82
2021/12/31 12:06:57;;;;;;;1999.90;999.90;;;;;;;;;;5034066;28;20071;-82
2021/12/31 12:09:43;;;;;;;1999.90;999.90;;;;;;;;;;5016631;28;20056;-82
2021/12/31 12:12:26;;;;;;;1999.90;999.90;;;;;;;;;;5019728;28;20115;-82
2021/12/31 12:14:55;;;;;;;1999.90;999.90;;;;;;;;;;5017733;28;20070;-82
2021/12/31 12:17:43;;;;;;;1999.90;999.90;;;;;;;;;;5017302;28;20024;-81
2021/12/31 12:20:13;;;;;;;1999.90;999.90;;;;;;;;;;5017395;28;20040;-82
2021/12/31 12:22:53;;;;;;;1999.90;999.90;;;;;;;;;;5016985;28;20053;-82
2021/12/31 12:25:29;;;;;;;1592.28;759.53;;;;;;;;;;5018590;28;20144;-82
2021/12/31 12:28:06;;;;;;;1999.90;999.90;;;;;;;;;;5049329;28;20039;-82
2021/12/31 12:30:43;;;;;;;1999.90;999.90;;;;;;;;;;5017206;28;20040;-82
2021/12/31 12:35:38;;;;;;;1631.20;770.47;;;;;;;;;;5017708;28;20064;-82
2021/12/31 12:38:23;;;;;;;1999.90;999.90;;;;;;;;;;5000680;28;20542;-82
2021/12/31 12:41:03;;;;;;;1999.90;999.90;;;;;;;;;;5002509;28;20029;-82
2021/12/31 12:43:35;;;;;;;1999.90;999.90;;;;;;;;;;5018268;28;20133;-81
2021/12/31 12:46:05;;;;;;;1488.78;570.10;;;;;;;;;;5001620;28;20067;-82
2021/12/31 12:48:35;;;;;;;1999.90;999.90;;;;;;;;;;5000939;28;20037;-82
2021/12/31 12:51:03;;;;;;;1999.90;999.90;;;;;;;;;;5000180;28;20021;-82
2021/12/31 12:53:29;;;;;;;1999.90;999.90;;;;;;;;;;5000711;28;20078;-82
2021/12/31 12:56:06;;;;;;;1999.90;999.90;;;;;;;;;;5000820;28;20029;-82
2021/12/31 12:58:31;;;;;;;1999.90;999.90;;;;;;;;;;5004831;28;20021;-81
2021/12/31 13:00:59;;;;;;;1999.90;999.90;;;;;;;;;;5004366;28;20386;-81
2021/12/31 13:03:25;;;;;;;1999.90;999.90;;;;;;;;;;5060649;28;20025;-82
2021/12/31 13:06:11;;;;;;;1999.90;999.90;;;;;;;;;;5004093;28;20031;-81
2021/12/31 13:08:36;;;;;;;1999.90;999.90;;;;;;;;;;5020009;28;20032;-82
2021/12/31 13:11:02;;;;;;;1999.90;999.90;;;;;;;;;;5036364;28;20083;-81
2021/12/31 13:13:34;;;;;;;1999.90;999.90;;;;;;;;;;5020672;28;20382;-81
2021/12/31 13:15:59;;;;;;;1999.90;999.90;;;;;;;;;;5004115;28;20025;-82
2021/12/31 13:18:35;;;;;;;1999.90;999.90;;;;;;;;;;5020569;28;20547;-81
2021/12/31 13:21:06;;;;;;;1999.90;999.90;;;;;;;;;;5021820;28;20086;-82
2021/12/31 13:23:32;;;;;;;1999.90;999.90;;;;;;;;;;5004185;28;20483;-82
2021/12/31 13:25:58;;;;;;;1999.90;999.90;;;;;;;;;;5039430;28;20028;-81
2021/12/31 13:28:27;;;;;;;1999.90;999.90;;;;;;;;;;5023626;28;20386;-82
2021/12/31 13:31:08;;;;;;;1999.90;999.90;;;;;;;;;;5040419;28;20036;-81
2021/12/31 13:33:47;;;;;;;1999.90;999.90;;;;;;;;;;5021812;28;20704;-81
2021/12/31 13:36:14;;;;;;;1999.90;999.90;;;;;;;;;;5020090;28;20075;-81
2021/12/31 13:39:05;;;;;;;1999.90;999.90;;;;;;;;;;5036240;28;20410;-82
2021/12/31 13:41:37;;;;;;;1999.90;999.90;;;;;;;;;;5035036;28;20540;-81
2021/12/31 13:44:04;;;;;;;1999.90;999.90;;;;;;;;;;5035313;28;20037;-82
2021/12/31 13:46:36;;;;;;;1999.90;999.90;;;;;;;;;;5036285;28;20052;-80
2021/12/31 13:49:20;;;;;;;1999.90;999.90;;;;;;;;;;5019999;28;20032;-80
2021/12/31 13:51:46;;;;;;;1999.90;999.90;;;;;;;;;;5019321;28;20029;-80